Time;durP1;ratioP1;P1;durP2;ratioP2;P2;SDS_P1;SDS_P2;PMS_P1;PMS_P2;Temp;Humidity;BMP_temperature;BMP_pressure;BME280_temperature;BME280_humidity;BME280_pressure;Samples;Min_cycle;Max_cycle;Signal;HPM_P1;HPM_P2
2022/10/17 00:01:58;;;;;;;7.75;4.72;;;11.70;99.90;;;10.39;100.00;101146.72;5004575;28;20033;-82
2022/10/17 00:04:24;;;;;;;6.78;4.18;;;11.70;99.90;;;10.33;100.00;101143.78;5006079;28;20559;-81
2022/10/17 00:06:50;;;;;;;8.82;4.50;;;11.60;99.90;;;10.29;100.00;101136.19;5005138;28;20088;-81
2022/10/17 00:09:15;;;;;;;8.63;4.50;;;11.60;99.90;;;10.28;100.00;101142.69;5016319;28;20045;-81
2022/10/17 00:11:41;;;;;;;8.68;4.32;;;11.60;99.90;;;10.22;100.00;101123.38;5019673;28;20099;-81
2022/10/17 00:14:07;;;;;;;10.05;4.72;;;11.60;99.90;;;10.30;100.00;101137.88;5018866;28;20037;-81
2022/10/17 00:16:38;;;;;;;6.90;4.30;;;11.60;99.90;;;10.35;100.00;101135.41;5022888;28;20069;-81
2022/10/17 00:19:06;;;;;;;11.60;5.32;;;11.70;99.90;;;10.42;100.00;101143.63;5016456;28;20106;-80
2022/10/17 00:21:32;;;;;;;13.07;5.90;;;11.70;99.90;;;10.47;100.00;101141.97;5013488;28;20040;-80
2022/10/17 00:23:59;;;;;;;8.98;5.93;;;11.80;99.90;;;10.53;100.00;101131.28;5017115;28;20167;-81
2022/10/17 00:26:27;;;;;;;10.25;5.53;;;11.80;99.90;;;10.54;100.00;101125.63;5022252;28;20608;-81
2022/10/17 00:28:53;;;;;;;10.35;6.25;;;11.80;99.90;;;10.58;100.00;101123.31;5020183;28;20666;-81
2022/10/17 00:31:21;;;;;;;9.60;5.50;;;11.90;99.90;;;10.57;100.00;101121.63;5012178;28;20469;-81
2022/10/17 00:33:49;;;;;;;8.75;5.65;;;11.90;99.90;;;10.50;100.00;101117.00;5016283;28;20037;-81
2022/10/17 00:36:25;;;;;;;10.40;6.03;;;11.90;99.90;;;10.46;100.00;101123.06;5030726;28;20029;-79
2022/10/17 00:38:56;;;;;;;12.45;6.68;;;11.80;99.90;;;10.38;100.00;101117.78;5004511;28;20492;-79
2022/10/17 00:41:29;;;;;;;9.95;6.18;;;11.70;99.90;;;10.31;100.00;101121.31;5010803;28;20030;-81
2022/10/17 00:44:02;;;;;;;11.82;6.35;;;11.70;99.90;;;10.27;100.00;101121.91;5015550;28;20038;-81
2022/10/17 00:46:37;;;;;;;9.50;6.32;;;11.60;99.90;;;10.20;100.00;101124.63;5009494;28;20037;-82
2022/10/17 00:49:10;;;;;;;8.52;5.80;;;11.60;99.90;;;10.16;100.00;101115.16;5013250;28;20045;-81
2022/10/17 00:51:45;;;;;;;11.55;6.63;;;11.50;99.90;;;10.14;100.00;101118.09;5013930;28;20041;-79
2022/10/17 00:54:15;;;;;;;10.63;7.32;;;11.50;99.90;;;10.20;100.00;101119.16;5037606;28;20128;-81
2022/10/17 00:56:42;;;;;;;11.15;7.35;;;11.50;99.90;;;10.16;100.00;101116.00;5017464;28;20084;-80
2022/10/17 00:59:12;;;;;;;11.95;6.95;;;11.50;99.90;;;10.10;100.00;101115.97;5021265;28;20099;-81
2022/10/17 01:01:41;;;;;;;10.68;6.55;;;11.50;99.90;;;10.00;100.00;101106.28;5017276;28;20083;-80
2022/10/17 01:04:08;;;;;;;9.15;6.57;;;11.40;99.90;;;10.05;100.00;101113.84;5017161;28;20042;-81
2022/10/17 01:06:34;;;;;;;11.07;6.60;;;11.40;99.90;;;9.94;100.00;101096.19;5016146;28;20124;-80
2022/10/17 01:09:00;;;;;;;10.70;6.55;;;11.40;99.90;;;9.96;100.00;101117.78;5020177;28;20029;-80
2022/10/17 01:11:54;;;;;;;10.52;6.05;;;11.30;99.90;;;9.95;100.00;101116.09;5017782;28;20029;-80
2022/10/17 01:14:46;;;;;;;10.55;6.40;;;11.30;99.90;;;9.95;100.00;101119.69;5019290;28;20037;-81
2022/10/17 01:17:40;;;;;;;9.23;5.47;;;11.30;99.90;;;9.83;100.00;101108.50;5009828;28;20044;-81
2022/10/17 01:20:58;;;;;;;9.25;6.50;;;11.20;99.90;;;9.95;100.00;101116.97;5012799;28;20030;-81
2022/10/17 01:24:06;;;;;;;10.38;6.65;;;11.30;99.90;;;10.06;100.00;101116.38;5006136;28;20107;-81
2022/10/17 01:27:04;;;;;;;10.32;6.72;;;11.40;99.90;;;10.16;100.00;101109.69;5015765;28;20408;-80
2022/10/17 01:30:23;;;;;;;13.40;6.95;;;11.50;99.90;;;10.23;100.00;101105.16;5018643;28;20026;-80
2022/10/17 01:33:26;;;;;;;13.02;6.53;;;11.50;99.90;;;10.32;100.00;101103.91;5028712;28;20026;-81
2022/10/17 01:36:02;;;;;;;8.40;6.30;;;11.60;99.90;;;10.40;100.00;101108.38;5010524;28;20068;-81
2022/10/17 01:38:49;;;;;;;12.07;7.07;;;11.70;99.90;;;10.42;100.00;101109.03;5021072;28;20033;-81
2022/10/17 01:41:38;;;;;;;14.18;7.10;;;11.70;99.90;;;10.47;100.00;101106.50;5015311;28;20053;-81
2022/10/17 01:44:31;;;;;;;13.77;6.70;;;11.70;99.90;;;10.47;100.00;101100.19;5021960;28;20053;-80
2022/10/17 01:47:05;;;;;;;13.30;6.95;;;11.80;99.90;;;10.44;100.00;101095.16;5016465;28;20028;-81
2022/10/17 01:49:34;;;;;;;10.68;6.80;;;11.80;99.90;;;10.45;100.00;101100.41;5034887;28;20052;-82
2022/10/17 01:52:09;;;;;;;10.52;6.50;;;11.70;99.90;;;10.42;100.00;101094.53;5032088;28;20033;-81
2022/10/17 01:54:47;;;;;;;10.82;6.55;;;11.70;99.90;;;10.33;100.00;101082.91;5040449;28;20473;-81
2022/10/17 01:57:25;;;;;;;10.60;5.93;;;11.70;99.90;;;10.32;100.00;101087.56;5020007;28;20037;-81
2022/10/17 01:59:54;;;;;;;11.13;5.57;;;11.60;99.90;;;10.30;100.00;101080.59;5011621;28;20124;-81
2022/10/17 02:02:22;;;;;;;10.75;5.90;;;11.60;99.90;;;10.34;100.00;101090.06;5017492;28;20166;-81
2022/10/17 02:04:53;;;;;;;9.55;5.93;;;11.60;99.90;;;10.35;100.00;101086.31;5033168;28;20029;-81
2022/10/17 02:07:19;;;;;;;8.43;5.63;;;11.60;99.90;;;10.37;100.00;101081.50;5020013;28;20033;-82
2022/10/17 02:09:45;;;;;;;9.60;5.35;;;11.60;99.90;;;10.39;100.00;101081.28;5019885;28;20478;-81
2022/10/17 02:12:36;;;;;;;9.77;5.50;;;11.70;99.90;;;10.38;100.00;101083.16;5040902;28;20144;-82
2022/10/17 02:15:07;;;;;;;10.95;5.80;;;11.70;99.90;;;10.42;100.00;101081.75;5022289;28;20089;-80
2022/10/17 02:18:02;;;;;;;10.07;5.80;;;11.70;99.90;;;10.41;100.00;101074.59;5021721;28;20039;-81
2022/10/17 02:20:38;;;;;;;9.50;5.80;;;11.70;99.90;;;10.47;100.00;101070.19;5019629;28;20036;-81
2022/10/17 02:23:51;;;;;;;12.20;5.93;;;11.70;99.90;;;10.55;100.00;101080.09;5023773;28;20112;-81
2022/10/17 02:26:37;;;;;;;11.98;5.95;;;11.80;99.90;;;10.53;100.00;101063.09;5013562;28;20041;-80
2022/10/17 02:29:20;;;;;;;9.75;5.55;;;11.80;99.90;;;10.45;100.00;101070.41;5016469;28;20400;-80
2022/10/17 02:32:10;;;;;;;9.70;5.72;;;11.80;99.90;;;10.31;100.00;101064.06;5012370;28;20048;-80
2022/10/17 02:34:55;;;;;;;11.70;6.03;;;11.70;99.90;;;10.16;100.00;101064.22;5014451;28;20025;-80
2022/10/17 02:37:27;;;;;;;12.07;6.38;;;11.50;99.90;;;10.07;100.00;101058.09;5023551;28;20041;-81
2022/10/17 02:39:56;;;;;;;10.05;6.22;;;11.50;99.90;;;10.07;100.00;101054.50;5021762;28;20022;-81
2022/10/17 02:42:26;;;;;;;12.85;6.47;;;11.40;99.90;;;10.12;100.00;101059.34;5023475;28;20045;-81
2022/10/17 02:44:56;;;;;;;10.20;6.32;;;11.40;99.90;;;10.27;100.00;101060.06;5016133;28;20436;-79
2022/10/17 02:47:42;;;;;;;10.93;6.68;;;11.50;99.90;;;10.43;100.00;101063.47;5017961;28;20037;-79
2022/10/17 02:50:09;;;;;;;11.13;6.10;;;11.70;99.90;;;10.49;100.00;101058.03;5013953;28;20026;-80
2022/10/17 02:52:51;;;;;;;19.00;6.80;;;11.80;99.90;;;10.45;100.00;101056.78;5027146;28;20060;-81
2022/10/17 02:55:45;;;;;;;12.57;6.47;;;11.80;99.90;;;10.50;100.00;101056.16;5014477;28;20032;-81
2022/10/17 02:58:19;;;;;;;11.70;6.63;;;11.80;99.90;;;10.47;100.00;101057.41;5013603;28;20025;-79
2022/10/17 03:00:45;;;;;;;10.10;6.10;;;11.80;99.90;;;10.44;100.00;101051.50;5030491;28;20026;-79
2022/10/17 03:03:28;;;;;;;9.13;6.10;;;11.80;99.90;;;10.42;100.00;101056.34;5020770;28;20032;-80
2022/10/17 03:05:58;;;;;;;9.18;5.97;;;11.80;99.90;;;10.38;100.00;101055.91;5033626;28;20369;-79
2022/10/17 03:08:25;;;;;;;11.52;6.50;;;11.70;99.90;;;10.35;100.00;101053.59;5034580;28;20117;-80
2022/10/17 03:10:51;;;;;;;10.77;6.13;;;11.70;99.90;;;10.31;100.00;101064.06;5012859;28;20167;-80
2022/10/17 03:13:18;;;;;;;7.75;5.28;;;11.60;99.90;;;10.32;100.00;101053.97;5024769;28;20043;-80
2022/10/17 03:15:45;;;;;;;8.82;5.38;;;11.70;99.90;;;10.22;100.00;101060.66;5031420;28;20033;-80
2022/10/17 03:18:11;;;;;;;9.68;5.78;;;11.60;99.90;;;10.09;100.00;101060.63;5022537;28;20025;-80
2022/10/17 03:20:37;;;;;;;11.93;5.63;;;11.50;99.90;;;10.02;100.00;101065.19;5025724;28;20026;-80
2022/10/17 03:23:03;;;;;;;7.07;4.97;;;11.40;99.90;;;9.96;100.00;101052.38;5033159;28;20511;-79
2022/10/17 03:25:29;;;;;;;8.02;5.28;;;11.30;99.90;;;9.93;100.00;101059.91;5014768;28;20061;-79
2022/10/17 03:27:59;;;;;;;9.15;4.90;;;11.30;99.90;;;9.78;100.00;101049.16;5008809;28;20026;-79
2022/10/17 03:30:26;;;;;;;7.65;5.10;;;11.20;99.90;;;9.75;100.00;101055.00;5014650;28;20029;-80
2022/10/17 03:32:52;;;;;;;6.50;4.53;;;11.10;99.90;;;9.71;100.00;101056.47;5005533;28;20497;-79
2022/10/17 03:35:18;;;;;;;9.43;5.60;;;11.10;99.90;;;9.67;100.00;101054.34;5009824;28;20389;-80
2022/10/17 03:37:47;;;;;;;12.02;5.72;;;11.00;99.90;;;9.57;100.00;101054.69;5014469;28;20033;-80
2022/10/17 03:40:14;;;;;;;8.90;5.50;;;10.90;99.90;;;9.49;100.00;101053.81;5024049;28;20080;-81
2022/10/17 03:42:40;;;;;;;9.40;5.80;;;10.90;99.90;;;9.49;100.00;101055.69;5013435;28;20038;-80
2022/10/17 03:45:07;;;;;;;12.23;6.50;;;10.90;99.90;;;9.59;100.00;101060.78;5009280;28;20512;-79
2022/10/17 03:47:33;;;;;;;11.75;7.07;;;10.90;99.90;;;9.47;100.00;101033.25;5015725;28;20057;-80
2022/10/17 03:49:58;;;;;;;14.13;7.45;;;11.00;99.90;;;9.61;100.00;101054.09;5035154;28;20127;-79
2022/10/17 03:52:24;;;;;;;12.57;7.40;;;11.00;99.90;;;9.48;100.00;101048.56;5021365;28;20063;-79
2022/10/17 03:54:50;;;;;;;11.82;7.53;;;10.90;99.90;;;9.38;100.00;101050.81;5032907;28;20026;-79
2022/10/17 03:57:18;;;;;;;15.77;8.65;;;10.80;99.90;;;9.33;100.00;101052.25;5020596;28;20029;-79
2022/10/17 03:59:43;;;;;;;15.05;8.50;;;10.80;99.90;;;9.37;100.00;101051.84;5004184;28;20034;-79
2022/10/17 04:02:13;;;;;;;13.65;8.30;;;10.70;99.90;;;9.31;100.00;101054.31;5005082;28;20032;-79
2022/10/17 04:04:39;;;;;;;15.05;9.27;;;10.70;99.90;;;9.24;100.00;101053.41;5017863;28;20021;-81
2022/10/17 04:07:05;;;;;;;14.05;8.60;;;10.70;99.90;;;9.12;100.00;101050.38;5015219;28;20034;-80
2022/10/17 04:09:34;;;;;;;13.90;8.55;;;10.60;99.90;;;9.07;100.00;101055.59;5009891;28;20030;-80
2022/10/17 04:12:06;;;;;;;13.95;8.18;;;10.50;99.90;;;9.02;100.00;101050.75;5017737;28;20456;-81
2022/10/17 04:14:35;;;;;;;14.07;8.90;;;10.50;99.90;;;9.03;100.00;101054.31;5018249;28;20033;-81
2022/10/17 04:17:01;;;;;;;12.82;8.55;;;10.50;99.90;;;9.12;100.00;101055.84;5012405;28;20053;-81
2022/10/17 04:19:28;;;;;;;14.52;9.27;;;10.50;99.90;;;9.19;100.00;101055.91;5015172;28;20033;-80
2022/10/17 04:21:54;;;;;;;15.65;9.70;;;10.60;99.90;;;9.23;100.00;101054.47;5008698;28;20053;-79
2022/10/17 04:24:20;;;;;;;14.52;9.55;;;10.60;99.90;;;9.31;100.00;101054.31;5024597;28;20025;-78
2022/10/17 04:26:55;;;;;;;18.65;10.38;;;10.70;99.90;;;9.45;100.00;101062.56;5016233;28;20063;-77
2022/10/17 04:29:24;;;;;;;16.15;9.95;;;10.80;99.90;;;9.46;100.00;101062.38;5019092;28;20030;-78
2022/10/17 04:31:54;;;;;;;15.15;9.93;;;10.80;99.90;;;9.59;100.00;101066.22;5024353;28;20072;-77
2022/10/17 04:34:30;;;;;;;18.33;10.68;;;10.90;99.90;;;9.62;100.00;101066.69;5001424;28;20038;-77
2022/10/17 04:36:56;;;;;;;21.10;11.27;;;11.00;99.90;;;9.72;100.00;101066.31;5006370;28;20087;-77
2022/10/17 04:39:22;;;;;;;17.02;11.10;;;11.00;99.90;;;9.80;100.00;101062.56;5011263;28;20044;-79
2022/10/17 04:41:50;;;;;;;18.80;11.18;;;11.20;99.90;;;9.68;100.00;101047.84;5024592;28;20385;-78
2022/10/17 04:44:16;;;;;;;18.92;10.98;;;11.20;99.90;;;9.75;100.00;101065.91;5008608;28;20021;-79
2022/10/17 04:46:48;;;;;;;16.83;11.43;;;11.10;99.90;;;9.94;100.00;101068.91;5007916;28;20084;-77
2022/10/17 04:49:14;;;;;;;19.20;11.65;;;11.30;99.90;;;10.01;100.00;101066.22;5016804;28;20037;-76
2022/10/17 04:51:42;;;;;;;20.92;11.95;;;11.30;99.90;;;10.11;100.00;101069.44;5037520;28;20041;-79
2022/10/17 04:54:20;;;;;;;19.55;11.27;;;11.40;99.90;;;10.57;100.00;101075.25;5036631;28;20029;-78
2022/10/17 04:56:52;;;;;;;16.80;11.50;;;11.70;99.90;;;11.06;100.00;101075.97;5012726;28;20129;-75
2022/10/17 04:59:18;;;;;;;17.13;10.48;;;12.20;99.90;;;11.25;100.00;101065.22;5006737;28;20034;-79
2022/10/17 05:01:47;;;;;;;;;;;12.50;99.90;;;11.45;100.00;101065.22;5009011;28;20022;-78
2022/10/17 05:04:13;;;;;;;16.48;9.68;;;12.70;99.90;;;11.52;100.00;101055.13;5016238;28;19939;-76
2022/10/17 05:06:39;;;;;;;12.27;8.57;;;12.80;99.90;;;11.69;100.00;101068.34;5011736;28;20476;-77
2022/10/17 05:09:36;;;;;;;12.63;7.80;;;12.90;99.90;;;11.91;100.00;101077.94;5013847;28;20026;-79
2022/10/17 05:12:02;;;;;;;11.50;7.40;;;13.10;99.90;;;11.93;100.00;101056.72;5003198;28;20022;-76
2022/10/17 05:14:29;;;;;;;15.48;7.45;;;13.20;99.90;;;12.04;100.00;101062.56;5032495;28;20025;-77
2022/10/17 05:16:55;;;;;;;14.95;7.47;;;13.30;99.90;;;12.01;100.00;101057.53;5022408;28;20456;-80
2022/10/17 05:19:20;;;;;;;10.10;7.18;;;13.30;99.90;;;12.11;100.00;101063.38;5023617;28;20052;-78
2022/10/17 05:21:49;;;;;;;10.07;6.68;;;13.40;99.90;;;12.07;100.00;101060.25;5027836;28;20077;-78
2022/10/17 05:24:15;;;;;;;12.60;7.10;;;13.30;99.90;;;12.08;100.00;101066.56;5026067;28;20055;-81
2022/10/17 05:26:41;;;;;;;13.95;7.00;;;13.30;99.90;;;12.10;100.00;101069.91;5025966;28;20104;-79
2022/10/17 05:29:06;;;;;;;10.57;6.38;;;13.30;99.90;;;12.11;100.00;101074.31;5022327;28;20034;-79
2022/10/17 05:31:36;;;;;;;8.20;5.30;;;13.30;99.90;;;12.20;100.00;101073.03;5016635;28;20451;-79
2022/10/17 05:34:04;;;;;;;7.72;5.65;;;13.40;99.90;;;12.37;100.00;101076.09;5035733;28;20029;-81
2022/10/17 05:36:32;;;;;;;7.28;5.25;;;13.60;99.90;;;12.49;100.00;101068.03;5022492;28;20038;-77
2022/10/17 05:38:59;;;;;;;9.27;5.30;;;13.70;99.90;;;12.62;100.00;101071.75;5014696;28;20026;-80
2022/10/17 05:41:26;;;;;;;8.13;5.57;;;13.80;99.90;;;12.77;100.00;101071.44;5038410;28;20116;-80
2022/10/17 05:43:52;;;;;;;7.63;5.43;;;13.90;99.90;;;12.92;100.00;101071.13;5015310;28;20356;-80
2022/10/17 05:46:24;;;;;;;11.38;5.75;;;14.10;99.90;;;12.99;100.00;101069.16;5038274;28;20033;-79
2022/10/17 05:48:50;;;;;;;9.80;5.05;;;14.20;99.90;;;13.11;100.00;101069.28;5020386;28;20172;-78
2022/10/17 05:51:16;;;;;;;7.70;4.70;;;14.30;99.90;;;13.19;100.00;101077.25;5024421;28;20044;-78
2022/10/17 05:53:42;;;;;;;7.22;4.70;;;14.40;99.90;;;13.18;100.00;101075.56;5040173;28;20033;-76
2022/10/17 05:56:14;;;;;;;7.30;4.05;;;14.40;99.90;;;13.07;100.00;101062.56;5018432;28;20040;-78
2022/10/17 05:58:44;;;;;;;6.20;3.85;;;14.20;99.90;;;13.12;100.00;101060.00;5013866;28;20035;-83
2022/10/17 06:01:17;;;;;;;9.07;4.40;;;14.30;99.90;;;13.18;100.00;101055.53;5031387;28;20026;-79
2022/10/17 06:03:43;;;;;;;5.88;3.50;;;14.30;99.90;;;13.26;100.00;101066.22;5015015;28;20037;-79
2022/10/17 06:06:12;;;;;;;6.10;3.42;;;14.40;99.90;;;13.28;100.00;101057.75;5022433;28;20032;-80
2022/10/17 06:08:42;;;;;;;5.70;3.30;;;14.40;99.90;;;13.39;100.00;101067.97;5011621;28;20036;-79
2022/10/17 06:11:13;;;;;;;4.45;3.33;;;14.60;99.90;;;13.47;100.00;101069.63;5010107;28;20033;-79
2022/10/17 06:13:40;;;;;;;4.85;3.33;;;14.60;99.90;;;13.55;100.00;101060.28;5015913;28;20345;-79
2022/10/17 06:16:12;;;;;;;6.05;3.05;;;14.70;99.90;;;13.61;100.00;101073.94;5019395;28;20032;-78
2022/10/17 06:18:38;;;;;;;6.72;3.25;;;14.80;99.90;;;13.63;100.00;101063.56;5005693;28;20022;-79
2022/10/17 06:21:10;;;;;;;7.50;3.10;;;14.80;99.90;;;13.71;100.00;101076.16;5009593;28;20021;-79
2022/10/17 06:23:39;;;;;;;6.30;3.00;;;14.90;99.90;;;13.83;100.00;101080.84;5015669;28;20053;-78
2022/10/17 06:26:13;;;;;;;7.55;3.40;;;15.00;99.90;;;13.75;100.00;101085.59;5019162;28;20238;-78
2022/10/17 06:28:39;;;;;;;5.13;2.88;;;15.00;99.90;;;13.77;100.00;101080.72;5014213;28;20033;-78
2022/10/17 06:31:16;;;;;;;9.10;3.45;;;15.00;99.90;;;13.81;100.00;101075.63;5017669;28;20033;-77
2022/10/17 06:33:42;;;;;;;5.53;3.10;;;15.00;99.90;;;13.89;100.00;101077.19;5026091;28;20038;-77
2022/10/17 06:36:13;;;;;;;5.90;3.45;;;15.10;99.90;;;13.94;100.00;101083.69;5023798;28;20132;-78
2022/10/17 06:38:42;;;;;;;4.78;3.08;;;15.20;99.90;;;13.94;100.00;101089.16;5009481;28;20026;-77
2022/10/17 06:41:18;;;;;;;9.77;4.05;;;15.10;99.90;;;13.98;100.00;101083.22;5014959;28;20030;-76
2022/10/17 06:43:46;;;;;;;6.00;3.00;;;15.20;99.90;;;13.95;100.00;101082.63;5026503;28;20315;-76
2022/10/17 06:46:30;;;;;;;9.18;3.17;;;15.20;99.90;;;14.05;100.00;101094.94;5006640;28;20134;-76
2022/10/17 06:48:59;;;;;;;7.25;3.15;;;15.30;99.90;;;14.16;100.00;101107.91;5029155;28;20025;-77
2022/10/17 06:51:36;;;;;;;6.07;2.95;;;15.40;99.90;;;14.27;100.00;101113.69;5012921;28;20084;-77
2022/10/17 06:54:04;;;;;;;7.50;3.30;;;15.50;99.90;;;14.31;100.00;101098.44;5034154;28;20511;-76
2022/10/17 06:56:47;;;;;;;5.35;2.88;;;15.60;99.90;;;14.46;100.00;101100.78;5032582;28;20037;-77
2022/10/17 06:59:37;;;;;;;7.15;3.17;;;15.70;99.90;;;14.68;100.00;101112.91;5004547;28;20102;-77
2022/10/17 07:02:10;;;;;;;6.00;2.88;;;15.80;99.90;;;14.78;100.00;101108.81;5015333;28;20021;-76
2022/10/17 07:04:37;;;;;;;8.20;2.45;;;16.00;99.90;;;14.89;100.00;101119.00;5010099;28;20543;-76
2022/10/17 07:07:03;;;;;;;7.28;3.10;;;16.10;99.90;;;14.97;100.00;101123.31;5018652;28;20168;-75
2022/10/17 07:09:31;;;;;;;4.55;2.85;;;16.20;99.90;;;15.01;100.00;101119.03;5011232;28;20116;-76
2022/10/17 07:11:59;;;;;;;5.15;2.90;;;16.30;99.90;;;15.02;100.00;101120.69;5012179;28;20480;-74
2022/10/17 07:14:30;;;;;;;4.63;2.60;;;16.30;99.90;;;15.06;100.00;101123.81;5012342;28;20022;-74
2022/10/17 07:16:58;;;;;;;5.30;2.83;;;16.30;99.90;;;15.07;100.00;101126.31;5013086;28;20030;-75
2022/10/17 07:19:26;;;;;;;6.00;2.92;;;16.30;99.90;;;15.06;100.00;101132.06;5009847;28;20266;-77
2022/10/17 07:21:53;;;;;;;8.35;2.55;;;16.30;99.90;;;15.08;100.00;101135.41;5017138;28;20056;-76
2022/10/17 07:24:19;;;;;;;5.72;2.95;;;16.30;99.90;;;15.23;100.00;101149.53;5018616;28;20040;-75
2022/10/17 07:26:53;;;;;;;5.53;2.90;;;16.40;99.90;;;15.36;100.00;101147.66;5026775;28;20060;-77
2022/10/17 07:29:19;;;;;;;6.03;2.80;;;16.50;99.90;;;15.59;100.00;101157.00;5017723;28;20393;-75
2022/10/17 07:32:02;;;;;;;7.82;2.40;;;16.70;99.90;;;15.78;100.00;101150.31;5005584;28;20048;-76
2022/10/17 07:34:30;;;;;;;5.85;2.72;;;16.90;99.90;;;15.99;100.00;101149.97;5008937;28;20350;-75
2022/10/17 07:36:56;;;;;;;5.80;2.58;;;17.10;99.90;;;16.27;100.00;101156.63;5005527;28;20454;-74
2022/10/17 07:39:22;;;;;;;6.13;3.00;;;17.30;99.90;;;16.45;100.00;101161.13;5013984;28;20196;-74
2022/10/17 07:41:49;;;;;;;5.03;2.25;;;17.60;99.90;;;16.59;100.00;101153.41;5014058;28;20500;-75
2022/10/17 07:44:15;;;;;;;6.07;2.65;;;17.70;99.90;;;16.76;100.00;101142.44;5013214;28;20061;-76
2022/10/17 07:46:45;;;;;;;5.53;2.40;;;17.90;99.90;;;16.91;100.00;101162.03;5010725;28;20614;-76
2022/10/17 07:49:11;;;;;;;3.75;2.63;;;18.00;99.90;;;16.93;100.00;101151.59;5014542;28;20099;-75
2022/10/17 07:51:39;;;;;;;9.48;2.35;;;18.10;99.90;;;17.09;100.00;101158.25;5015009;28;20033;-75
2022/10/17 07:54:05;;;;;;;4.32;2.50;;;18.20;99.90;;;17.14;100.00;101148.41;5000910;28;20033;-76
2022/10/17 07:56:32;;;;;;;6.45;2.30;;;18.30;99.90;;;17.21;100.00;101158.19;5008985;28;20026;-76
2022/10/17 07:58:57;;;;;;;4.70;2.30;;;18.40;99.90;;;17.22;100.00;101167.28;5008930;28;20018;-75
2022/10/17 08:01:24;;;;;;;4.38;2.30;;;18.40;99.90;;;17.19;100.00;101167.78;5013069;28;20524;-76
2022/10/17 08:03:50;;;;;;;4.00;2.08;;;18.40;99.90;;;17.18;100.00;101155.09;5008967;28;20599;-75
2022/10/17 08:06:17;;;;;;;6.00;2.58;;;18.40;99.90;;;17.25;100.00;101170.38;5000929;28;20132;-76
2022/10/17 08:08:43;;;;;;;4.50;2.78;;;18.40;99.90;;;17.32;100.00;101152.84;5001956;28;20026;-76
2022/10/17 08:11:13;;;;;;;6.78;2.20;;;18.50;99.90;;;17.32;100.00;101150.94;5005243;28;20120;-75
2022/10/17 08:13:40;;;;;;;5.30;2.28;;;18.50;99.90;;;17.36;100.00;101149.34;5005284;28;20042;-76
2022/10/17 08:16:09;;;;;;;4.67;2.37;;;18.50;99.90;;;17.53;100.00;101159.53;5008189;28;20049;-76
2022/10/17 08:18:38;;;;;;;7.00;2.67;;;18.60;99.90;;;17.65;100.00;101162.22;5005615;28;20669;-77
2022/10/17 08:21:05;;;;;;;6.45;2.42;;;18.70;99.90;;;17.72;100.00;101153.75;5006655;28;20075;-78
2022/10/17 08:23:31;;;;;;;5.72;2.45;;;18.80;99.90;;;17.89;98.54;101167.50;5001447;28;20026;-77
2022/10/17 08:26:09;;;;;;;6.35;2.70;;;19.00;99.90;;;17.98;97.73;101150.25;5012207;28;20378;-77
2022/10/17 08:28:39;;;;;;;5.35;2.63;;;19.10;99.90;;;18.03;96.91;101151.44;5010961;28;20052;-76
2022/10/17 08:31:14;;;;;;;8.00;2.70;;;19.20;99.90;;;18.12;96.06;101152.69;5005580;28;20042;-77
2022/10/17 08:33:40;;;;;;;15.38;3.13;;;19.30;99.90;;;18.33;95.51;101150.22;5010542;28;20037;-77
2022/10/17 08:36:08;;;;;;;6.88;2.83;;;19.40;99.90;;;18.48;92.88;101157.84;5007478;28;20060;-77
2022/10/17 08:38:36;;;;;;;4.20;2.28;;;19.60;99.90;;;18.48;91.60;101150.38;5005362;28;20069;-76
2022/10/17 08:41:12;;;;;;;;;;;19.70;99.90;;;18.63;90.64;101165.50;5003308;28;20054;-77
2022/10/17 08:44:19;;;;;;;9.52;2.55;;;19.80;99.90;;;18.72;91.44;101163.09;5005791;28;19909;-76
2022/10/17 08:46:50;;;;;;;8.38;2.30;;;19.80;99.90;;;18.84;89.59;101158.25;5005831;28;20057;-77
2022/10/17 08:49:38;;;;;;;14.75;3.88;;;19.90;99.90;;;18.91;88.87;101163.56;4999917;28;20034;-76
2022/10/17 08:52:27;;;;;;;7.80;2.95;;;20.00;99.90;;;18.93;87.81;101161.38;5002517;28;20034;-77
2022/10/17 08:54:53;;;;;;;6.60;2.58;;;20.10;99.90;;;18.95;88.80;101148.94;5003371;28;20026;-76
2022/10/17 08:57:19;;;;;;;7.85;2.65;;;20.20;99.90;;;19.18;86.36;101165.53;5008789;28;20033;-78
2022/10/17 08:59:52;;;;;;;8.05;2.60;;;20.30;99.90;;;19.13;84.89;101160.78;5011597;28;20033;-76
2022/10/17 09:02:56;;;;;;;11.65;2.80;;;20.20;99.90;;;19.10;86.08;101158.53;5010400;28;20026;-76
2022/10/17 09:05:54;;;;;;;6.95;3.13;;;20.20;99.90;;;19.22;86.63;101147.31;5005825;28;20048;-74
2022/10/17 09:09:00;;;;;;;6.10;2.40;;;20.30;99.90;;;19.25;84.54;101146.78;5005119;28;20116;-74
2022/10/17 09:11:34;;;;;;;5.57;2.60;;;20.40;99.90;;;19.23;84.83;101148.97;5011462;28;20500;-76
2022/10/17 09:15:11;;;;;;;7.82;2.80;;;20.30;99.90;;;19.12;84.15;101125.94;5006041;28;20129;-75
2022/10/17 09:18:07;;;;;;;7.95;2.63;;;20.40;99.90;;;19.30;84.68;101138.50;5004989;28;20322;-77
2022/10/17 09:20:42;;;;;;;6.32;2.30;;;20.50;99.90;;;19.30;84.64;101138.50;5000078;28;20049;-75
2022/10/17 09:23:13;;;;;;;5.72;2.30;;;20.50;99.90;;;19.32;84.58;101141.84;5007209;28;20029;-76
2022/10/17 09:25:51;;;;;;;9.50;3.03;;;20.50;99.90;;;19.45;83.73;101134.22;5005600;28;20037;-76
2022/10/17 09:28:31;;;;;;;12.95;3.88;;;20.60;99.90;;;19.61;83.22;101149.81;5014741;28;20044;-76
2022/10/17 09:31:06;;;;;;;6.88;2.30;;;20.60;99.90;;;19.63;81.32;101147.66;5002823;28;20041;-74
2022/10/17 09:33:38;;;;;;;20.73;4.55;;;20.80;99.90;;;19.75;81.94;101154.91;4999429;28;20034;-76
2022/10/17 09:36:21;;;;;;;10.05;3.33;;;20.80;99.90;;;19.85;81.42;101160.50;5009813;28;20060;-75
2022/10/17 09:38:55;;;;;;;9.15;3.25;;;20.90;99.90;;;20.04;80.64;101163.72;5011550;28;20033;-78
2022/10/17 09:41:29;;;;;;;10.75;3.15;;;21.10;99.90;;;20.23;79.71;101171.53;5011354;28;20030;-75
2022/10/17 09:44:37;;;;;;;6.68;2.72;;;21.30;99.90;;;20.45;77.66;101178.84;4999816;28;20057;-76
2022/10/17 09:47:40;;;;;;;3.33;1.95;;;21.50;99.90;;;20.87;73.08;101164.06;5000172;28;20038;-75
2022/10/17 09:50:26;;;;;;;6.97;2.15;;;21.90;99.90;;;21.81;68.10;101162.16;5001522;28;20042;-75
2022/10/17 09:52:54;;;;;;;6.25;2.17;;;;;;;22.65;64.88;101183.00;5011305;28;20045;-76
2022/10/17 09:55:38;;;;;;;5.30;2.30;;;;;;;23.69;59.83;101177.53;5010273;28;20046;-74
2022/10/17 09:58:06;;;;;;;5.70;2.30;;;;;;;24.08;58.98;101186.94;5004005;28;20045;-74
2022/10/17 10:00:42;;;;;;;;;;;;;;;24.15;58.65;101181.84;4999964;28;20034;-75
2022/10/17 10:03:11;;;;;;;5.55;2.20;;;;;;;23.17;62.69;101182.69;5002187;28;19917;-77
2022/10/17 10:05:38;;;;;;;4.70;2.40;;;;;;;22.79;61.80;101181.25;5005140;28;20088;-75
2022/10/17 10:08:12;;;;;;;5.72;1.90;;;;;;;22.05;64.32;101170.69;5008895;28;20151;-75
2022/10/17 10:10:42;;;;;;;7.22;2.10;;;22.80;99.90;;;21.51;68.14;101183.25;5007092;28;20038;-75
2022/10/17 10:13:14;;;;;;;6.07;2.38;;;;;;;21.21;70.21;101184.88;5005116;28;20060;-75
2022/10/17 10:15:48;;;;;;;5.93;2.38;;;22.90;99.90;;;21.25;70.65;101184.06;5004110;28;20345;-75
2022/10/17 10:18:34;;;;;;;5.57;2.08;;;22.40;99.90;;;21.46;69.06;101175.75;5004165;28;20034;-74
2022/10/17 10:21:08;;;;;;;7.47;2.30;;;;;;;22.79;63.56;101180.44;4999256;28;20037;-75
2022/10/17 10:23:39;;;;;;;4.63;2.10;;;;;;;23.67;59.15;101180.63;5005825;28;20500;-77
2022/10/17 10:26:22;;;;;;;5.40;2.08;;;;;;;24.31;57.21;101187.25;5005071;28;20050;-75
2022/10/17 10:28:55;;;;;;;3.75;2.08;;;;;;;24.98;54.83;101205.91;5015690;28;20037;-77
2022/10/17 10:31:28;;;;;;;4.80;1.95;;;;;;;25.46;53.76;101213.25;5014000;28;20049;-78
2022/10/17 10:33:54;;;;;;;4.78;1.70;;;;;;;24.99;55.60;101213.16;5011135;28;20025;-76
2022/10/17 10:36:21;;;;;;;7.35;2.03;;;;;;;24.20;57.30;101211.59;5003799;28;20509;-77